createdAt,value
2018-02-19T00:01:26.210Z,12.17
2018-02-19T00:03:52.990Z,11.20
2018-02-19T00:06:19.753Z,9.70
2018-02-19T00:08:46.509Z,9.83
2018-02-19T00:11:13.271Z,9.83
2018-02-19T00:13:40.052Z,10.90
2018-02-19T00:16:07.469Z,11.03
2018-02-19T00:18:34.240Z,10.13
2018-02-19T00:21:01.013Z,9.80
2018-02-19T00:23:28.103Z,10.33
2018-02-19T00:25:54.901Z,10.33
2018-02-19T00:28:21.680Z,10.77
2018-02-19T00:30:48.469Z,10.93
2018-02-19T00:33:15.247Z,9.33
2018-02-19T00:35:42.025Z,9.93
2018-02-19T00:38:08.869Z,10.10
2018-02-19T00:40:35.646Z,10.37
2018-02-19T00:43:02.418Z,10.27
2018-02-19T00:45:29.180Z,8.67
2018-02-19T00:47:55.934Z,11.00
2018-02-19T00:50:22.745Z,10.47
2018-02-19T00:52:49.499Z,10.60
2018-02-19T00:55:16.258Z,11.03
2018-02-19T00:57:43.013Z,10.33
2018-02-19T01:00:09.791Z,7.07
2018-02-19T01:02:36.616Z,10.80
2018-02-19T01:05:03.401Z,11.27
2018-02-19T01:07:30.162Z,11.40
2018-02-19T01:09:56.931Z,11.30
2018-02-19T01:12:23.687Z,10.37
2018-02-19T01:14:50.503Z,9.60
2018-02-19T01:17:17.294Z,10.48
2018-02-19T01:19:44.122Z,11.98
2018-02-19T01:22:10.881Z,10.23
2018-02-19T01:24:37.638Z,10.10
2018-02-19T01:27:05.017Z,10.50
2018-02-19T01:29:31.771Z,13.27
2018-02-19T01:31:58.535Z,12.23
2018-02-19T01:34:25.321Z,12.05
2018-02-19T01:36:52.078Z,12.50
2018-02-19T01:39:18.897Z,10.57
2018-02-19T01:41:45.650Z,9.50
2018-02-19T01:44:13.253Z,11.20
2018-02-19T01:46:40.002Z,10.30
2018-02-19T01:49:06.752Z,9.97
2018-02-19T01:51:33.572Z,11.23
2018-02-19T01:54:00.326Z,10.07
2018-02-19T01:56:27.815Z,11.33
2018-02-19T01:58:54.572Z,11.03
2018-02-19T02:01:21.336Z,9.60
2018-02-19T02:03:48.125Z,11.93
2018-02-19T02:06:14.890Z,10.20
2018-02-19T02:08:41.653Z,12.83
2018-02-19T02:11:08.398Z,10.53
2018-02-19T02:13:35.178Z,12.80
2018-02-19T02:16:01.993Z,10.20
2018-02-19T02:18:28.750Z,11.80
2018-02-19T02:20:55.536Z,12.00
2018-02-19T02:23:23.247Z,11.27
2018-02-19T02:25:49.998Z,13.07
2018-02-19T02:28:16.811Z,13.43
2018-02-19T02:30:43.558Z,10.93
2018-02-19T02:33:10.334Z,10.77
2018-02-19T02:35:37.094Z,12.20
2018-02-19T02:38:04.658Z,12.10
2018-02-19T02:40:31.441Z,13.53
2018-02-19T02:42:58.182Z,12.00
2018-02-19T02:45:24.976Z,12.07
2018-02-19T02:47:51.754Z,12.37
2018-02-19T02:50:18.513Z,11.10
2018-02-19T02:52:45.304Z,13.67
2018-02-19T02:55:12.065Z,12.70
2018-02-19T02:57:38.811Z,11.40
2018-02-19T03:00:05.579Z,13.70
2018-02-19T03:02:32.386Z,12.17
2018-02-19T03:04:59.183Z,11.33
2018-02-19T03:07:25.946Z,13.10
2018-02-19T03:09:52.722Z,11.67
2018-02-19T03:12:19.497Z,12.53
2018-02-19T03:14:46.319Z,11.00
2018-02-19T03:17:13.116Z,11.63
2018-02-19T03:19:39.920Z,12.17
2018-02-19T03:22:06.679Z,15.40
2018-02-19T03:24:33.460Z,13.17
2018-02-19T03:27:00.219Z,12.93
2018-02-19T03:29:27.065Z,13.20
2018-02-19T03:31:53.818Z,13.93
2018-02-19T03:34:20.603Z,11.80
2018-02-19T03:36:47.363Z,12.63
2018-02-19T03:39:14.137Z,13.20
2018-02-19T03:41:40.932Z,12.60
2018-02-19T03:44:07.683Z,14.50
2018-02-19T03:46:34.453Z,14.07
2018-02-19T03:49:01.251Z,12.50
2018-02-19T03:51:28.014Z,13.87
2018-02-19T03:53:54.969Z,13.13
2018-02-19T03:56:21.721Z,15.77
2018-02-19T03:58:48.488Z,12.13
2018-02-19T04:01:15.246Z,12.40
2018-02-19T04:03:42.001Z,12.73
2018-02-19T04:06:08.814Z,12.67
2018-02-19T04:08:35.601Z,12.00
2018-02-19T04:11:02.386Z,13.02
2018-02-19T04:13:29.158Z,12.43
2018-02-19T04:15:55.914Z,15.63
2018-02-19T04:18:22.695Z,13.20
2018-02-19T04:20:49.474Z,12.60
2018-02-19T04:23:16.252Z,13.32
2018-02-19T04:25:43.025Z,15.90
2018-02-19T04:28:09.808Z,13.20
2018-02-19T04:30:36.623Z,13.97
2018-02-19T04:33:03.381Z,14.03
2018-02-19T04:35:30.809Z,12.97
2018-02-19T04:37:57.599Z,16.37
2018-02-19T04:40:24.980Z,15.90
2018-02-19T04:43:08.299Z,14.57
2018-02-19T04:45:37.868Z,13.65
2018-02-19T04:48:04.683Z,14.73
2018-02-19T04:50:31.461Z,12.13
2018-02-19T04:52:58.211Z,16.20
2018-02-19T04:55:25.000Z,12.53
2018-02-19T04:57:51.783Z,14.00
2018-02-19T05:00:18.550Z,15.13
2018-02-19T05:02:45.525Z,13.67
2018-02-19T05:05:12.278Z,13.50
2018-02-19T05:07:39.071Z,14.40
2018-02-19T05:10:05.826Z,15.60
2018-02-19T05:12:32.571Z,14.87
2018-02-19T05:14:59.309Z,16.30
2018-02-19T05:17:26.072Z,14.07
2018-02-19T05:19:52.905Z,15.37
2018-02-19T05:22:19.654Z,12.73
2018-02-19T05:24:46.425Z,15.20
2018-02-19T05:27:13.227Z,15.80
2018-02-19T05:29:40.012Z,17.17
2018-02-19T05:32:06.823Z,15.37
2018-02-19T05:34:33.589Z,14.23
2018-02-19T05:37:00.341Z,14.33
2018-02-19T05:39:27.312Z,14.20
2018-02-19T05:41:54.389Z,14.20
2018-02-19T05:44:21.222Z,15.03
2018-02-19T05:46:47.990Z,16.00
2018-02-19T05:49:14.807Z,17.80
2018-02-19T05:51:41.569Z,15.40
2018-02-19T05:54:08.373Z,14.73
2018-02-19T05:56:35.169Z,13.80
2018-02-19T05:59:01.957Z,13.87
2018-02-19T06:01:29.008Z,13.23
2018-02-19T06:03:56.486Z,14.57
2018-02-19T06:06:23.255Z,15.60
2018-02-19T06:08:50.060Z,16.02
2018-02-19T06:11:16.826Z,15.07
2018-02-19T06:13:43.602Z,14.80
2018-02-19T06:16:10.347Z,16.20
2018-02-19T06:18:37.114Z,18.58
2018-02-19T06:21:03.971Z,15.03
2018-02-19T06:23:30.731Z,13.80
2018-02-19T06:25:57.512Z,13.37
2018-02-19T06:28:24.298Z,16.65
2018-02-19T06:30:51.080Z,13.53
2018-02-19T06:33:17.885Z,15.03
2018-02-19T06:35:44.654Z,16.23
2018-02-19T06:38:11.422Z,15.00
2018-02-19T06:40:38.232Z,16.80
2018-02-19T06:43:05.013Z,16.53
2018-02-19T06:45:31.768Z,16.67
2018-02-19T06:47:58.613Z,21.27
2018-02-19T06:50:25.362Z,18.53
2018-02-19T06:52:52.887Z,17.77
2018-02-19T06:55:19.697Z,15.10
2018-02-19T06:57:46.494Z,16.77
2018-02-19T07:00:13.337Z,18.33
2018-02-19T07:02:41.017Z,18.50
2018-02-19T07:05:07.789Z,16.33
2018-02-19T07:07:34.636Z,14.20
2018-02-19T07:10:01.409Z,15.63
2018-02-19T07:12:28.197Z,17.03
2018-02-19T07:14:54.979Z,18.67
2018-02-19T07:17:21.781Z,14.33
2018-02-19T07:19:48.550Z,15.35
2018-02-19T07:22:15.330Z,16.15
2018-02-19T07:24:42.077Z,16.30
2018-02-19T07:27:08.822Z,16.00
2018-02-19T07:29:35.605Z,14.60
2018-02-19T07:32:02.359Z,14.70
2018-02-19T07:34:29.741Z,15.27
2018-02-19T07:36:57.110Z,16.90
2018-02-19T07:39:24.482Z,18.77
2018-02-19T07:41:51.247Z,16.70
2018-02-19T07:44:18.103Z,15.87
2018-02-19T07:46:45.209Z,17.43
2018-02-19T07:49:13.128Z,15.83
2018-02-19T07:51:39.916Z,18.47
2018-02-19T07:54:06.679Z,17.30
2018-02-19T07:56:33.463Z,18.07
2018-02-19T07:59:00.218Z,19.77
2018-02-19T08:01:26.988Z,16.60
2018-02-19T08:03:53.772Z,17.90
2018-02-19T08:06:20.546Z,15.57
2018-02-19T08:08:47.358Z,15.47
2018-02-19T08:11:14.110Z,16.30
2018-02-19T08:13:40.859Z,15.97
2018-02-19T08:16:07.630Z,18.87
2018-02-19T08:18:34.383Z,17.07
2018-02-19T08:21:01.189Z,16.87
2018-02-19T08:23:28.566Z,16.57
2018-02-19T08:25:55.341Z,17.60
2018-02-19T08:28:22.090Z,17.63
2018-02-19T08:30:48.862Z,18.30
2018-02-19T08:33:15.658Z,17.53
2018-02-19T08:35:42.431Z,15.67
2018-02-19T08:38:09.193Z,19.13
2018-02-19T08:40:35.950Z,18.90
2018-02-19T08:43:02.717Z,19.20
2018-02-19T08:45:29.503Z,19.70
2018-02-19T08:47:56.404Z,18.70
2018-02-19T08:50:23.362Z,18.73
2018-02-19T08:52:50.121Z,17.90
2018-02-19T08:55:16.897Z,19.17
2018-02-19T08:57:43.709Z,17.40
2018-02-19T09:00:11.078Z,18.50
2018-02-19T09:02:38.018Z,17.70
2018-02-19T09:05:04.893Z,20.27
2018-02-19T09:07:31.646Z,20.20
2018-02-19T09:09:58.866Z,21.97
2018-02-19T09:12:25.620Z,21.77
2018-02-19T09:14:52.372Z,23.57
2018-02-19T09:17:19.150Z,23.10
2018-02-19T09:19:45.930Z,19.50
2018-02-19T09:22:12.734Z,20.40
2018-02-19T09:24:39.510Z,21.43
2018-02-19T09:27:06.332Z,22.57
2018-02-19T09:29:33.075Z,21.43
2018-02-19T09:31:59.835Z,24.47
2018-02-19T09:34:27.098Z,24.77
2018-02-19T09:36:53.845Z,23.57
2018-02-19T09:39:20.596Z,23.23
2018-02-19T09:41:47.369Z,25.77
2018-02-19T09:44:14.336Z,28.70
2018-02-19T09:46:41.123Z,26.80
2018-02-19T09:49:07.963Z,27.67
2018-02-19T09:51:34.704Z,23.57
2018-02-19T09:54:01.467Z,26.80
2018-02-19T09:56:28.237Z,23.83
2018-02-19T09:58:55.029Z,26.03
2018-02-19T10:01:21.783Z,27.40
2018-02-19T10:03:48.552Z,23.33
2018-02-19T10:06:15.359Z,28.00
2018-02-19T10:08:42.236Z,30.03
2018-02-19T10:11:09.056Z,27.67
2018-02-19T10:13:35.842Z,26.20
2018-02-19T10:16:02.631Z,26.07
2018-02-19T10:18:29.776Z,26.47
2018-02-19T10:20:56.558Z,25.43
2018-02-19T10:23:23.520Z,27.30
2018-02-19T10:25:50.278Z,24.00
2018-02-19T10:28:17.019Z,28.17
2018-02-19T10:30:43.767Z,28.03
2018-02-19T10:46:06.322Z,29.90
2018-02-19T10:48:33.097Z,29.97
2018-02-19T10:50:59.876Z,30.57
2018-02-19T10:53:26.660Z,27.33
2018-02-19T10:55:53.428Z,26.70
2018-02-19T10:58:20.175Z,28.47
2018-02-19T11:00:46.943Z,27.77
2018-02-19T11:03:13.719Z,28.17
2018-02-19T11:05:40.495Z,27.07
2018-02-19T11:08:07.270Z,27.07
2018-02-19T11:10:34.038Z,26.80
2018-02-19T11:13:00.802Z,30.13
2018-02-19T11:15:27.622Z,26.47
2018-02-19T11:17:54.398Z,29.30
2018-02-19T11:20:21.336Z,27.00
2018-02-19T11:22:48.087Z,27.03
2018-02-19T11:25:14.852Z,26.23
2018-02-19T11:27:41.642Z,25.43
2018-02-19T11:30:08.419Z,26.60
2018-02-19T11:32:35.175Z,25.00
2018-02-19T11:35:02.024Z,31.03
2018-02-19T11:37:28.791Z,27.63
2018-02-19T11:39:55.631Z,25.50
2018-02-19T11:42:22.390Z,25.77
2018-02-19T11:44:49.153Z,26.87
2018-02-19T11:47:15.922Z,26.17
2018-02-19T11:49:42.699Z,23.73
2018-02-19T11:52:09.528Z,24.83
2018-02-19T11:54:36.301Z,25.20
2018-02-19T11:57:03.070Z,22.60
2018-02-19T11:59:29.840Z,22.00
2018-02-19T12:01:56.602Z,23.53
2018-02-19T12:04:24.132Z,18.37
2018-02-19T12:06:50.906Z,24.20
2018-02-19T12:09:17.695Z,23.87
2018-02-19T12:11:44.487Z,25.30
2018-02-19T12:14:11.242Z,26.27
2018-02-19T12:16:38.039Z,25.07
2018-02-19T12:19:04.797Z,23.43
2018-02-19T12:21:31.550Z,27.20
2018-02-19T12:23:59.088Z,26.10
2018-02-19T12:26:25.869Z,24.43
2018-02-19T12:28:52.679Z,28.57
2018-02-19T12:31:20.961Z,27.63
2018-02-19T12:33:47.796Z,26.17
2018-02-19T12:36:14.556Z,26.87
2018-02-19T12:38:41.518Z,22.93
2018-02-19T12:41:08.303Z,24.13
2018-02-19T12:43:35.414Z,25.27
2018-02-19T12:46:02.166Z,25.87
2018-02-19T12:48:28.922Z,26.70
2018-02-19T12:50:55.713Z,24.13
2018-02-19T12:53:22.517Z,26.80
2018-02-19T12:55:49.284Z,25.50
2018-02-19T12:58:16.039Z,26.13
2018-02-19T13:00:42.791Z,27.50
2018-02-19T13:03:09.559Z,22.10
2018-02-19T13:05:36.367Z,26.33
2018-02-19T13:08:03.114Z,29.00
2018-02-19T13:10:29.865Z,24.13
2018-02-19T13:12:56.620Z,25.67
2018-02-19T13:15:23.374Z,26.00
2018-02-19T13:17:50.185Z,23.33
2018-02-19T13:20:16.934Z,26.70
2018-02-19T13:22:44.302Z,25.70
2018-02-19T13:25:11.071Z,23.57
2018-02-19T13:27:37.858Z,26.47
2018-02-19T13:30:04.693Z,26.57
2018-02-19T13:32:32.495Z,26.17
2018-02-19T13:34:59.277Z,23.30
2018-02-19T13:37:26.049Z,25.83
2018-02-19T13:39:52.822Z,28.77
2018-02-19T13:42:19.643Z,27.30
2018-02-19T13:44:46.414Z,24.47
2018-02-19T13:47:13.221Z,26.80
2018-02-19T13:49:39.966Z,24.70
2018-02-19T13:52:06.746Z,25.70
2018-02-19T13:54:33.566Z,24.70
2018-02-19T13:57:00.310Z,26.27
2018-02-19T13:59:27.073Z,25.30
2018-02-19T14:01:53.863Z,26.00
2018-02-19T14:04:20.643Z,23.27
2018-02-19T14:06:47.483Z,25.37
2018-02-19T14:09:14.236Z,22.83
2018-02-19T14:11:41.032Z,25.80
2018-02-19T14:14:07.784Z,25.20
2018-02-19T14:16:34.553Z,25.47
2018-02-19T14:19:01.374Z,27.23
2018-02-19T14:21:28.128Z,27.03
2018-02-19T14:23:54.891Z,27.93
2018-02-19T14:26:21.686Z,26.80
2018-02-19T14:28:48.445Z,29.07
2018-02-19T14:31:15.289Z,27.23
2018-02-19T14:33:42.063Z,27.37
2018-02-19T14:36:08.841Z,27.13
2018-02-19T14:38:35.599Z,28.00
2018-02-19T14:41:02.357Z,27.20
2018-02-19T14:43:29.709Z,27.90
2018-02-19T14:45:56.481Z,27.10
2018-02-19T14:48:23.880Z,28.70
2018-02-19T14:50:50.644Z,28.60
2018-02-19T14:53:17.391Z,24.27
2018-02-19T14:55:44.186Z,29.43
2018-02-19T14:58:11.672Z,26.43
2018-02-19T15:00:38.527Z,27.27
2018-02-19T15:03:05.287Z,28.50
2018-02-19T15:05:32.066Z,28.40
2018-02-19T15:07:58.878Z,28.17
2018-02-19T15:10:25.645Z,30.60
2018-02-19T15:12:52.428Z,27.83
2018-02-19T15:15:19.188Z,30.07
2018-02-19T15:17:46.059Z,28.13
2018-02-19T15:20:12.849Z,28.73
2018-02-19T15:22:39.611Z,27.10
2018-02-19T15:25:06.345Z,28.47
2018-02-19T15:27:33.087Z,27.70
2018-02-19T15:30:00.111Z,29.77
2018-02-19T15:32:26.919Z,28.33
2018-02-19T15:34:53.705Z,30.30
2018-02-19T15:37:20.451Z,28.00
2018-02-19T15:39:47.532Z,27.90
2018-02-19T15:42:14.272Z,28.30
2018-02-19T15:44:41.073Z,28.03
2018-02-19T15:47:07.841Z,27.60
2018-02-19T15:49:34.619Z,27.50
2018-02-19T15:52:01.389Z,29.77
2018-02-19T15:54:28.164Z,28.10
2018-02-19T15:56:54.973Z,25.47
2018-02-19T15:59:22.383Z,29.67
2018-02-19T16:01:49.186Z,27.60
2018-02-19T16:04:16.739Z,29.60
2018-02-19T16:06:43.548Z,30.60
2018-02-19T16:09:10.393Z,28.67
2018-02-19T16:11:37.193Z,28.67
2018-02-19T16:14:04.032Z,29.77
2018-02-19T16:16:30.796Z,30.37
2018-02-19T16:18:57.617Z,32.13
2018-02-19T16:21:24.393Z,33.30
2018-02-19T16:23:51.481Z,39.67
2018-02-19T16:26:18.222Z,27.10
2018-02-19T16:28:44.982Z,27.40
2018-02-19T16:31:12.027Z,31.23
2018-02-19T16:33:38.833Z,28.23
2018-02-19T16:36:05.587Z,30.80
2018-02-19T16:38:32.363Z,29.63
2018-02-19T16:40:59.120Z,30.40
2018-02-19T16:43:25.899Z,32.43
2018-02-19T16:45:52.654Z,26.40
2018-02-19T16:48:19.406Z,31.03
2018-02-19T16:50:46.178Z,29.30
2018-02-19T16:53:12.945Z,31.13
2018-02-19T16:55:39.698Z,31.47
2018-02-19T16:58:06.454Z,31.37
2018-02-19T17:00:33.234Z,26.50
2018-02-19T17:02:59.982Z,26.80
2018-02-19T17:05:26.730Z,30.83
2018-02-19T17:07:53.762Z,29.20
2018-02-19T17:10:20.525Z,32.80
2018-02-19T17:12:47.284Z,33.90
2018-02-19T17:15:14.042Z,30.03
2018-02-19T17:17:40.830Z,30.30
2018-02-19T17:20:07.642Z,28.50
2018-02-19T17:22:34.457Z,31.60
2018-02-19T17:25:01.227Z,30.90
2018-02-19T17:27:27.993Z,28.97
2018-02-19T17:29:54.958Z,29.87
2018-02-19T17:32:21.766Z,31.27
2018-02-19T17:34:48.566Z,29.07
2018-02-19T17:37:15.340Z,32.47
2018-02-19T17:39:42.147Z,29.20
2018-02-19T17:42:08.929Z,27.70
2018-02-19T17:44:35.787Z,30.00
2018-02-19T17:47:02.574Z,29.20
2018-02-19T17:49:29.337Z,31.87
2018-02-19T17:51:56.140Z,31.67
2018-02-19T17:54:23.666Z,30.13
2018-02-19T17:56:50.654Z,30.77
2018-02-19T17:59:17.399Z,29.90
2018-02-19T18:01:44.187Z,31.20
2018-02-19T18:04:10.945Z,29.00
2018-02-19T18:06:37.703Z,27.20
2018-02-19T18:09:04.565Z,28.23
2018-02-19T18:11:31.315Z,29.87
2018-02-19T18:13:58.074Z,28.37
2018-02-19T18:16:25.248Z,33.77
2018-02-19T18:18:52.054Z,32.20
2018-02-19T18:21:18.877Z,32.33
2018-02-19T18:23:45.860Z,29.30
2018-02-19T18:26:12.638Z,28.17
2018-02-19T18:28:39.419Z,31.33
2018-02-19T18:31:06.195Z,32.00
2018-02-19T18:33:33.002Z,29.47
2018-02-19T18:35:59.782Z,30.43
2018-02-19T18:38:26.543Z,29.83
2018-02-19T18:40:53.321Z,28.73
2018-02-19T18:43:20.105Z,29.30
2018-02-19T18:45:46.934Z,27.93
2018-02-19T18:48:13.699Z,31.13
2018-02-19T18:50:40.492Z,30.47
2018-02-19T18:53:07.269Z,31.83
2018-02-19T18:55:34.037Z,29.03
2018-02-19T18:58:00.823Z,27.20
2018-02-19T19:00:27.591Z,30.00
2018-02-19T19:02:54.528Z,30.80
2018-02-19T19:05:21.304Z,28.77
2018-02-19T19:07:53.914Z,29.37
2018-02-19T19:10:26.596Z,27.17
2018-02-19T19:12:53.649Z,31.07
2018-02-19T19:15:20.498Z,33.53
2018-02-19T19:17:47.274Z,30.30
2018-02-19T19:20:14.045Z,29.10
2018-02-19T19:22:40.844Z,31.80
2018-02-19T19:25:08.281Z,33.83
2018-02-19T19:27:35.352Z,31.53
2018-02-19T19:30:02.405Z,34.30
2018-02-19T19:32:29.279Z,32.37
2018-02-19T19:34:56.083Z,32.73
2018-02-19T19:37:22.863Z,34.07
2018-02-19T19:39:49.650Z,36.37
2018-02-19T19:42:16.417Z,33.47
2018-02-19T19:44:43.173Z,30.57
2018-02-19T19:47:10.097Z,31.70
2018-02-19T19:49:36.869Z,30.57
2018-02-19T19:52:04.046Z,30.77
2018-02-19T19:54:30.827Z,32.73
2018-02-19T19:56:57.588Z,32.90
2018-02-19T19:59:24.387Z,34.07
2018-02-19T20:01:51.152Z,32.13
2018-02-19T20:04:17.891Z,35.70
2018-02-19T20:06:44.670Z,32.80
2018-02-19T20:09:11.474Z,31.43
2018-02-19T20:11:38.465Z,32.00
2018-02-19T20:14:05.258Z,32.47
2018-02-19T20:16:32.030Z,34.93
2018-02-19T20:18:58.908Z,35.30
2018-02-19T20:21:25.736Z,34.90
2018-02-19T20:23:52.523Z,33.90
2018-02-19T20:26:19.304Z,32.53
2018-02-19T20:28:46.078Z,33.70
2018-02-19T20:31:12.837Z,34.90
2018-02-19T20:33:39.631Z,34.30
2018-02-19T20:36:06.446Z,33.23
2018-02-19T20:38:34.046Z,38.27
2018-02-19T20:41:00.818Z,34.37
2018-02-19T20:43:27.864Z,34.97
2018-02-19T20:45:54.623Z,34.30
2018-02-19T20:48:21.498Z,35.03
2018-02-19T20:50:48.287Z,31.73
2018-02-19T20:53:15.159Z,33.77
2018-02-19T20:55:42.555Z,34.30
2018-02-19T20:58:09.351Z,34.00
2018-02-19T21:00:36.177Z,31.97
2018-02-19T21:03:02.996Z,35.17
2018-02-19T21:05:29.826Z,34.60
2018-02-19T21:07:56.629Z,33.60
2018-02-19T21:10:23.412Z,35.37
2018-02-19T21:12:50.227Z,34.80
2018-02-19T21:15:17.156Z,29.37
2018-02-19T21:17:45.437Z,32.67
2018-02-19T21:20:12.230Z,32.40
2018-02-19T21:22:39.675Z,28.93
2018-02-19T21:25:06.522Z,32.63
2018-02-19T21:27:33.283Z,35.00
2018-02-19T21:30:00.121Z,33.80
2018-02-19T21:32:26.873Z,35.30
2018-02-19T21:34:53.673Z,33.60
2018-02-19T21:37:20.489Z,31.00
2018-02-19T21:39:47.270Z,34.20
2018-02-19T21:42:14.064Z,34.07
2018-02-19T21:44:40.835Z,32.27
2018-02-19T21:47:07.613Z,30.03
2018-02-19T21:49:34.435Z,30.50
2018-02-19T21:52:01.210Z,30.30
2018-02-19T21:54:27.989Z,31.90
2018-02-19T21:56:54.748Z,33.77
2018-02-19T21:59:21.519Z,31.33
2018-02-19T22:01:48.330Z,33.47
2018-02-19T22:04:15.154Z,31.20
2018-02-19T22:06:43.989Z,31.67
2018-02-19T22:09:10.881Z,31.03
2018-02-19T22:11:37.666Z,29.67
2018-02-19T22:14:05.086Z,30.00
2018-02-19T22:16:31.983Z,30.00
2018-02-19T22:18:58.770Z,32.13
2018-02-19T22:21:26.323Z,31.43
2018-02-19T22:23:53.102Z,30.33
2018-02-19T22:26:20.121Z,28.63
2018-02-19T22:28:46.906Z,29.67
2018-02-19T22:31:13.662Z,29.77
2018-02-19T22:33:40.440Z,30.17
2018-02-19T22:36:07.206Z,29.27
2018-02-19T22:38:34.742Z,31.37
2018-02-19T22:41:01.507Z,28.60
2018-02-19T22:43:28.282Z,32.33
2018-02-19T22:45:55.134Z,32.17
2018-02-19T22:48:21.910Z,31.47
2018-02-19T22:50:48.708Z,30.97
2018-02-19T22:53:15.481Z,29.17
2018-02-19T22:55:42.234Z,30.90
2018-02-19T22:58:08.993Z,29.90
2018-02-19T23:00:36.425Z,33.67
2018-02-19T23:03:03.251Z,28.60
2018-02-19T23:05:30.027Z,33.43
2018-02-19T23:07:56.776Z,30.67
2018-02-19T23:10:23.535Z,31.07
2018-02-19T23:12:50.307Z,29.83
2018-02-19T23:15:17.094Z,30.37
2018-02-19T23:17:43.860Z,32.10
2018-02-19T23:20:10.642Z,31.40
2018-02-19T23:22:37.415Z,30.20
2018-02-19T23:25:04.171Z,31.97
2018-02-19T23:27:30.960Z,29.80
2018-02-19T23:29:57.754Z,33.23
2018-02-19T23:32:24.511Z,31.80
2018-02-19T23:34:51.296Z,29.07
2018-02-19T23:37:18.064Z,28.33
2018-02-19T23:39:44.860Z,29.90
2018-02-19T23:42:11.839Z,30.00
2018-02-19T23:44:38.616Z,29.90
2018-02-19T23:47:05.382Z,28.63
2018-02-19T23:49:32.898Z,32.07
2018-02-19T23:51:59.695Z,30.37
2018-02-19T23:54:32.248Z,31.60
2018-02-19T23:56:59.058Z,30.10
2018-02-19T23:59:25.840Z,29.50
